createdAt,value
2018-12-12T00:00:37.445Z,1018.78
2018-12-12T00:01:37.449Z,1018.75
2018-12-12T00:02:37.441Z,1018.70
2018-12-12T00:03:37.442Z,1018.72
2018-12-12T00:04:37.435Z,1018.73
2018-12-12T00:05:37.427Z,1018.74
2018-12-12T00:06:37.439Z,1018.74
2018-12-12T00:07:37.425Z,1018.73
2018-12-12T00:08:37.453Z,1018.76
2018-12-12T00:09:37.430Z,1018.75
2018-12-12T00:10:37.440Z,1018.75
2018-12-12T00:11:37.441Z,1018.77
2018-12-12T00:12:37.410Z,1018.76
2018-12-12T00:13:37.422Z,1018.78
2018-12-12T00:14:37.425Z,1018.71
2018-12-12T00:15:37.411Z,1018.75
2018-12-12T00:16:37.415Z,1018.72
2018-12-12T00:17:37.433Z,1018.73
2018-12-12T00:18:37.400Z,1018.69
2018-12-12T00:19:37.407Z,1018.71
2018-12-12T00:20:37.404Z,1018.69
2018-12-12T00:21:37.413Z,1018.69
2018-12-12T00:22:37.411Z,1018.68
2018-12-12T00:23:37.384Z,1018.67
2018-12-12T00:24:37.389Z,1018.66
2018-12-12T00:25:37.387Z,1018.68
2018-12-12T00:26:37.397Z,1018.67
2018-12-12T00:27:37.383Z,1018.66
2018-12-12T00:28:37.381Z,1018.65
2018-12-12T00:29:37.368Z,1018.65
2018-12-12T00:30:37.373Z,1018.67
2018-12-12T00:31:37.369Z,1018.66
2018-12-12T00:32:37.380Z,1018.67
2018-12-12T00:33:37.372Z,1018.71
2018-12-12T00:34:37.363Z,1018.73
2018-12-12T00:35:37.354Z,1018.75
2018-12-12T00:36:37.362Z,1018.83
2018-12-12T00:37:37.352Z,1018.87
2018-12-12T00:38:37.356Z,1018.86
2018-12-12T00:39:37.348Z,1018.84
2018-12-12T00:40:37.354Z,1018.80
2018-12-12T00:41:37.373Z,1018.85
2018-12-12T00:42:37.347Z,1018.85
2018-12-12T00:43:37.344Z,1018.81
2018-12-12T00:44:37.332Z,1018.86
2018-12-12T00:45:37.347Z,1018.82
2018-12-12T00:46:37.337Z,1018.87
2018-12-12T00:47:37.336Z,1018.83
2018-12-12T00:48:37.333Z,1018.82
2018-12-12T00:49:37.326Z,1018.85
2018-12-12T00:50:37.328Z,1018.85
2018-12-12T00:51:37.322Z,1018.87
2018-12-12T00:52:37.322Z,1018.83
2018-12-12T00:53:37.317Z,1018.85
2018-12-12T00:54:37.323Z,1018.83
2018-12-12T00:55:37.308Z,1018.84
2018-12-12T00:56:37.311Z,1018.84
2018-12-12T00:57:37.301Z,1018.89
2018-12-12T00:58:37.311Z,1018.82
2018-12-12T00:59:37.306Z,1018.82
2018-12-12T01:00:37.303Z,1018.79
2018-12-12T01:01:37.299Z,1018.83
2018-12-12T01:02:37.306Z,1018.79
2018-12-12T01:03:37.306Z,1018.81
2018-12-12T01:04:37.300Z,1018.78
2018-12-12T01:05:37.303Z,1018.79
2018-12-12T01:06:37.299Z,1018.79
2018-12-12T01:07:37.286Z,1018.72
2018-12-12T01:08:37.287Z,1018.72
2018-12-12T01:09:37.275Z,1018.73
2018-12-12T01:10:37.279Z,1018.77
2018-12-12T01:11:37.267Z,1018.76
2018-12-12T01:12:37.269Z,1018.79
2018-12-12T01:13:37.259Z,1018.84
2018-12-12T01:14:37.282Z,1018.83
2018-12-12T01:15:38.986Z,1018.89
2018-12-12T01:16:37.255Z,1018.86
2018-12-12T01:17:37.259Z,1018.91
2018-12-12T01:18:37.264Z,1018.88
2018-12-12T01:19:37.260Z,1018.91
2018-12-12T01:20:37.256Z,1018.90
2018-12-12T01:21:37.245Z,1018.85
2018-12-12T01:22:37.246Z,1018.87
2018-12-12T01:23:37.246Z,1018.87
2018-12-12T01:24:37.273Z,1018.86
2018-12-12T01:25:37.237Z,1018.87
2018-12-12T01:26:37.247Z,1018.86
2018-12-12T01:27:37.226Z,1018.89
2018-12-12T01:28:37.237Z,1018.90
2018-12-12T01:29:37.237Z,1018.92
2018-12-12T01:30:37.228Z,1018.92
2018-12-12T01:31:37.225Z,1018.92
2018-12-12T01:32:37.215Z,1018.98
2018-12-12T01:33:37.236Z,1018.96
2018-12-12T01:34:37.213Z,1018.99
2018-12-12T01:35:37.220Z,1019.00
2018-12-12T01:36:37.203Z,1018.99
2018-12-12T01:37:37.212Z,1018.98
2018-12-12T01:38:37.202Z,1018.98
2018-12-12T01:39:37.204Z,1018.97
2018-12-12T01:40:37.207Z,1018.97
2018-12-12T01:41:37.199Z,1018.93
2018-12-12T01:42:37.201Z,1019.00
2018-12-12T01:43:37.198Z,1018.98
2018-12-12T01:44:37.190Z,1018.96
2018-12-12T01:45:37.190Z,1018.97
2018-12-12T01:46:37.187Z,1019.00
2018-12-12T01:47:37.196Z,1018.97
2018-12-12T01:48:37.184Z,1018.97
2018-12-12T01:49:37.192Z,1018.97
2018-12-12T01:50:37.182Z,1018.97
2018-12-12T01:51:37.250Z,1018.97
2018-12-12T01:52:37.177Z,1019.01
2018-12-12T01:53:37.164Z,1018.96
2018-12-12T01:54:37.179Z,1018.98
2018-12-12T01:55:37.162Z,1019.00
2018-12-12T01:56:37.171Z,1018.97
2018-12-12T01:57:37.159Z,1018.98
2018-12-12T01:58:37.149Z,1018.95
2018-12-12T01:59:37.158Z,1018.97
2018-12-12T02:00:37.157Z,1018.98
2018-12-12T02:01:37.166Z,1018.93
2018-12-12T02:02:37.150Z,1018.95
2018-12-12T02:03:38.984Z,1018.96
2018-12-12T02:04:37.141Z,1018.98
2018-12-12T02:05:37.139Z,1018.97
2018-12-12T02:06:37.137Z,1019.00
2018-12-12T02:07:37.123Z,1019.00
2018-12-12T02:08:37.133Z,1019.00
2018-12-12T02:09:37.133Z,1018.97
2018-12-12T02:10:37.118Z,1019.04
2018-12-12T02:11:37.125Z,1019.03
2018-12-12T02:12:37.110Z,1019.05
2018-12-12T02:13:37.119Z,1019.07
2018-12-12T02:14:37.105Z,1019.08
2018-12-12T02:15:37.112Z,1019.08
2018-12-12T02:16:37.103Z,1019.11
2018-12-12T02:17:37.111Z,1019.11
2018-12-12T02:18:37.105Z,1019.14
2018-12-12T02:19:37.102Z,1019.16
2018-12-12T02:20:37.098Z,1019.19
2018-12-12T02:21:37.113Z,1019.22
2018-12-12T02:22:37.093Z,1019.21
2018-12-12T02:23:37.088Z,1019.23
2018-12-12T02:24:37.093Z,1019.22
2018-12-12T02:25:37.091Z,1019.25
2018-12-12T02:26:37.086Z,1019.26
2018-12-12T02:27:37.081Z,1019.26
2018-12-12T02:28:37.083Z,1019.28
2018-12-12T02:29:37.083Z,1019.29
2018-12-12T02:30:37.077Z,1019.31
2018-12-12T02:31:37.092Z,1019.35
2018-12-12T02:32:37.072Z,1019.34
2018-12-12T02:33:37.060Z,1019.34
2018-12-12T02:34:37.070Z,1019.33
2018-12-12T02:35:37.066Z,1019.31
2018-12-12T02:36:37.074Z,1019.37
2018-12-12T02:37:37.062Z,1019.33
2018-12-12T02:38:37.047Z,1019.32
2018-12-12T02:39:37.059Z,1019.28
2018-12-12T02:40:37.053Z,1019.29
2018-12-12T02:41:37.049Z,1019.26
2018-12-12T02:42:37.051Z,1019.26
2018-12-12T02:43:37.049Z,1019.22
2018-12-12T02:44:37.039Z,1019.18
2018-12-12T02:45:37.055Z,1019.20
2018-12-12T02:46:37.034Z,1019.20
2018-12-12T02:47:37.046Z,1019.20
2018-12-12T02:48:37.056Z,1019.22
2018-12-12T02:49:37.030Z,1019.21
2018-12-12T02:50:37.030Z,1019.25
2018-12-12T02:51:37.037Z,1019.24
2018-12-12T02:52:37.018Z,1019.21
2018-12-12T02:53:37.021Z,1019.18
2018-12-12T02:54:37.018Z,1019.22
2018-12-12T02:55:37.020Z,1019.22
2018-12-12T02:56:37.013Z,1019.22
2018-12-12T02:57:37.010Z,1019.23
2018-12-12T02:58:37.031Z,1019.24
2018-12-12T02:59:37.001Z,1019.26
2018-12-12T03:00:37.013Z,1019.24
2018-12-12T03:01:37.001Z,1019.26
2018-12-12T03:02:36.995Z,1019.31
2018-12-12T03:03:37.002Z,1019.24
2018-12-12T03:04:36.994Z,1019.29
2018-12-12T03:05:37.012Z,1019.29
2018-12-12T03:06:36.991Z,1019.30
2018-12-12T03:07:36.983Z,1019.29
2018-12-12T03:08:36.985Z,1019.28
2018-12-12T03:09:36.983Z,1019.31
2018-12-12T03:10:36.981Z,1019.34
2018-12-12T03:11:36.987Z,1019.32
2018-12-12T03:12:36.970Z,1019.38
2018-12-12T03:13:37.006Z,1019.36
2018-12-12T03:14:36.969Z,1019.37
2018-12-12T03:15:36.962Z,1019.36
2018-12-12T03:16:36.965Z,1019.39
2018-12-12T03:17:36.954Z,1019.41
2018-12-12T03:18:36.983Z,1019.42
2018-12-12T03:19:36.958Z,1019.42
2018-12-12T03:20:36.976Z,1019.42
2018-12-12T03:21:36.965Z,1019.45
2018-12-12T03:22:36.949Z,1019.46
2018-12-12T03:23:36.954Z,1019.49
2018-12-12T03:24:36.946Z,1019.51
2018-12-12T03:25:36.949Z,1019.54
2018-12-12T03:26:36.942Z,1019.54
2018-12-12T03:27:36.943Z,1019.60
2018-12-12T03:28:36.934Z,1019.61
2018-12-12T03:29:36.933Z,1019.60
2018-12-12T03:30:36.934Z,1019.56
2018-12-12T03:31:36.931Z,1019.58
2018-12-12T03:32:36.938Z,1019.58
2018-12-12T03:33:36.934Z,1019.56
2018-12-12T03:34:36.914Z,1019.53
2018-12-12T03:35:36.928Z,1019.56
2018-12-12T03:36:36.915Z,1019.54
2018-12-12T03:37:36.921Z,1019.56
2018-12-12T03:38:36.912Z,1019.53
2018-12-12T03:39:38.514Z,1019.50
2018-12-12T03:40:36.901Z,1019.51
2018-12-12T03:41:36.910Z,1019.53
2018-12-12T03:42:36.895Z,1019.48
2018-12-12T03:43:36.897Z,1019.46
2018-12-12T03:44:36.895Z,1019.45
2018-12-12T03:45:36.895Z,1019.48
2018-12-12T03:46:36.901Z,1019.46
2018-12-12T03:47:36.906Z,1019.46
2018-12-12T03:48:36.884Z,1019.48
2018-12-12T03:49:36.880Z,1019.48
2018-12-12T03:50:36.898Z,1019.49
2018-12-12T03:51:36.890Z,1019.50
2018-12-12T03:52:36.876Z,1019.52
2018-12-12T03:53:36.867Z,1019.50
2018-12-12T03:54:36.878Z,1019.47
2018-12-12T03:55:36.872Z,1019.48
2018-12-12T03:56:36.869Z,1019.50
2018-12-12T03:57:36.871Z,1019.49
2018-12-12T03:58:36.867Z,1019.52
2018-12-12T03:59:36.864Z,1019.45
2018-12-12T04:00:36.862Z,1019.47
2018-12-12T04:01:36.853Z,1019.47
2018-12-12T04:02:36.854Z,1019.48
2018-12-12T04:03:36.852Z,1019.49
2018-12-12T04:04:36.857Z,1019.48
2018-12-12T04:05:36.851Z,1019.45
2018-12-12T04:06:36.837Z,1019.49
2018-12-12T04:07:36.857Z,1019.45
2018-12-12T04:08:36.830Z,1019.48
2018-12-12T04:09:36.853Z,1019.46
2018-12-12T04:10:36.834Z,1019.49
2018-12-12T04:11:36.823Z,1019.50
2018-12-12T04:12:36.823Z,1019.50
2018-12-12T04:13:36.819Z,1019.48
2018-12-12T04:14:36.826Z,1019.50
2018-12-12T04:15:36.813Z,1019.45
2018-12-12T04:16:36.809Z,1019.45
2018-12-12T04:17:36.812Z,1019.46
2018-12-12T04:18:36.816Z,1019.44
2018-12-12T04:19:36.818Z,1019.44
2018-12-12T04:20:36.804Z,1019.42
2018-12-12T04:21:36.800Z,1019.40
2018-12-12T04:22:36.800Z,1019.45
2018-12-12T04:23:36.798Z,1019.45
2018-12-12T04:24:36.798Z,1019.43
2018-12-12T04:25:36.805Z,1019.45
2018-12-12T04:26:36.794Z,1019.46
2018-12-12T04:27:36.792Z,1019.42
2018-12-12T04:28:36.785Z,1019.48
2018-12-12T04:29:36.777Z,1019.48
2018-12-12T04:30:36.786Z,1019.48
2018-12-12T04:31:36.789Z,1019.50
2018-12-12T04:32:36.777Z,1019.53
2018-12-12T04:33:36.799Z,1019.54
2018-12-12T04:34:36.776Z,1019.53
2018-12-12T04:35:36.780Z,1019.53
2018-12-12T04:36:36.826Z,1019.53
2018-12-12T04:37:36.764Z,1019.54
2018-12-12T04:38:36.768Z,1019.55
2018-12-12T04:39:36.755Z,1019.51
2018-12-12T04:40:36.754Z,1019.52
2018-12-12T04:41:36.756Z,1019.57
2018-12-12T04:42:36.773Z,1019.54
2018-12-12T04:43:36.757Z,1019.59
2018-12-12T04:44:36.750Z,1019.57
2018-12-12T04:45:36.761Z,1019.60
2018-12-12T04:46:36.748Z,1019.60
2018-12-12T04:47:36.747Z,1019.56
2018-12-12T04:48:36.744Z,1019.58
2018-12-12T04:49:36.730Z,1019.58
2018-12-12T04:50:36.727Z,1019.59
2018-12-12T04:51:36.736Z,1019.57
2018-12-12T04:52:36.732Z,1019.56
2018-12-12T04:53:36.730Z,1019.56
2018-12-12T04:54:36.729Z,1019.55
2018-12-12T04:55:36.724Z,1019.54
2018-12-12T04:56:36.729Z,1019.51
2018-12-12T04:57:36.716Z,1019.49
2018-12-12T04:58:36.710Z,1019.51
2018-12-12T04:59:36.712Z,1019.49
2018-12-12T05:00:36.707Z,1019.48
2018-12-12T05:01:36.707Z,1019.49
2018-12-12T05:02:36.731Z,1019.46
2018-12-12T05:03:36.703Z,1019.43
2018-12-12T05:04:36.693Z,1019.45
2018-12-12T05:05:36.706Z,1019.45
2018-12-12T05:06:36.687Z,1019.45
2018-12-12T05:07:36.691Z,1019.44
2018-12-12T05:08:36.694Z,1019.43
2018-12-12T05:09:36.683Z,1019.45
2018-12-12T05:10:36.682Z,1019.46
2018-12-12T05:11:36.691Z,1019.46
2018-12-12T05:12:36.669Z,1019.45
2018-12-12T05:13:36.679Z,1019.48
2018-12-12T05:14:36.670Z,1019.47
2018-12-12T05:15:36.671Z,1019.47
2018-12-12T05:16:36.693Z,1019.47
2018-12-12T05:17:36.655Z,1019.50
2018-12-12T05:18:36.665Z,1019.57
2018-12-12T05:19:36.667Z,1019.58
2018-12-12T05:20:36.649Z,1019.62
2018-12-12T05:21:36.656Z,1019.65
2018-12-12T05:22:36.667Z,1019.67
2018-12-12T05:23:36.642Z,1019.69
2018-12-12T05:24:36.643Z,1019.72
2018-12-12T05:25:36.640Z,1019.72
2018-12-12T05:26:38.525Z,1019.71
2018-12-12T05:27:36.650Z,1019.71
2018-12-12T05:28:36.645Z,1019.75
2018-12-12T05:29:36.637Z,1019.72
2018-12-12T05:30:36.627Z,1019.73
2018-12-12T05:31:36.630Z,1019.74
2018-12-12T05:32:36.624Z,1019.73
2018-12-12T05:33:36.626Z,1019.73
2018-12-12T05:34:36.613Z,1019.72
2018-12-12T05:35:36.612Z,1019.76
2018-12-12T05:36:36.610Z,1019.81
2018-12-12T05:37:36.681Z,1019.76
2018-12-12T05:38:36.616Z,1019.79
2018-12-12T05:39:36.613Z,1019.75
2018-12-12T05:40:36.628Z,1019.77
2018-12-12T05:41:36.599Z,1019.76
2018-12-12T05:42:36.593Z,1019.77
2018-12-12T05:43:36.610Z,1019.78
2018-12-12T05:44:36.593Z,1019.79
2018-12-12T05:45:36.583Z,1019.76
2018-12-12T05:46:41.756Z,1019.76
2018-12-12T05:47:36.578Z,1019.73
2018-12-12T05:48:36.581Z,1019.77
2018-12-12T05:49:36.582Z,1019.76
2018-12-12T05:50:36.583Z,1019.72
2018-12-12T05:51:36.590Z,1019.72
2018-12-12T05:52:36.571Z,1019.76
2018-12-12T05:53:36.569Z,1019.78
2018-12-12T05:54:36.566Z,1019.77
2018-12-12T05:55:36.567Z,1019.73
2018-12-12T05:56:36.554Z,1019.84
2018-12-12T05:57:36.563Z,1019.82
2018-12-12T05:58:36.554Z,1019.83
2018-12-12T05:59:36.548Z,1019.83
2018-12-12T06:00:36.565Z,1019.84
2018-12-12T06:01:36.636Z,1019.82
2018-12-12T06:02:36.549Z,1019.88
2018-12-12T06:03:36.549Z,1019.91
2018-12-12T06:04:36.551Z,1019.89
2018-12-12T06:05:36.536Z,1019.91
2018-12-12T06:06:36.539Z,1019.92
2018-12-12T06:07:36.526Z,1019.93
2018-12-12T06:08:36.537Z,1019.92
2018-12-12T06:09:36.525Z,1019.97
2018-12-12T06:10:36.535Z,1019.96
2018-12-12T06:11:36.547Z,1019.97
2018-12-12T06:12:36.513Z,1020.01
2018-12-12T06:13:36.514Z,1020.00
2018-12-12T06:14:36.506Z,1020.03
2018-12-12T06:15:36.509Z,1020.03
2018-12-12T06:16:36.509Z,1020.00
2018-12-12T06:17:36.700Z,1020.03
2018-12-12T06:18:36.502Z,1020.03
2018-12-12T06:19:36.529Z,1020.02
2018-12-12T06:20:36.494Z,1020.01
2018-12-12T06:21:36.500Z,1020.01
2018-12-12T06:22:37.880Z,1019.96
2018-12-12T06:23:36.490Z,1019.95
2018-12-12T06:24:36.492Z,1019.99
2018-12-12T06:25:36.483Z,1019.99
2018-12-12T06:26:37.565Z,1019.97
2018-12-12T06:27:36.484Z,1020.00
2018-12-12T06:28:36.469Z,1019.98
2018-12-12T06:29:36.477Z,1019.99
2018-12-12T06:30:36.475Z,1019.95
2018-12-12T06:31:36.495Z,1019.89
2018-12-12T06:32:36.468Z,1019.93
2018-12-12T06:33:36.471Z,1019.96
2018-12-12T06:34:36.480Z,1019.98
2018-12-12T06:35:36.464Z,1019.95
2018-12-12T06:36:36.457Z,1019.98
2018-12-12T06:37:36.450Z,1019.95
2018-12-12T06:38:36.450Z,1020.05
2018-12-12T06:39:36.444Z,1020.04
2018-12-12T06:40:36.454Z,1020.00
2018-12-12T06:41:36.453Z,1020.04
2018-12-12T06:42:36.449Z,1020.02
2018-12-12T06:43:36.432Z,1020.06
2018-12-12T06:44:36.434Z,1020.08
2018-12-12T06:45:36.434Z,1020.09
2018-12-12T06:46:36.434Z,1020.09
2018-12-12T06:47:36.464Z,1020.11
2018-12-12T06:48:36.424Z,1020.10
2018-12-12T06:49:36.420Z,1020.13
2018-12-12T06:50:36.416Z,1020.10
2018-12-12T06:51:36.415Z,1020.12
2018-12-12T06:52:36.423Z,1020.11
2018-12-12T06:53:36.410Z,1020.15
2018-12-12T06:54:36.426Z,1020.11
2018-12-12T06:55:36.406Z,1020.12
2018-12-12T06:56:36.406Z,1020.14
2018-12-12T06:57:36.407Z,1020.16
2018-12-12T06:58:36.412Z,1020.20
2018-12-12T06:59:36.403Z,1020.18
2018-12-12T07:00:36.391Z,1020.21
2018-12-12T07:01:36.400Z,1020.20
2018-12-12T07:02:36.391Z,1020.20
2018-12-12T07:03:36.398Z,1020.17
2018-12-12T07:04:36.394Z,1020.19
2018-12-12T07:05:36.379Z,1020.17
2018-12-12T07:06:36.396Z,1020.13
2018-12-12T07:07:36.392Z,1020.16
2018-12-12T07:08:36.390Z,1020.14
2018-12-12T07:09:36.380Z,1020.18
2018-12-12T07:10:36.383Z,1020.21
2018-12-12T07:11:36.368Z,1020.21
2018-12-12T07:12:36.365Z,1020.22
2018-12-12T07:13:36.429Z,1020.26
2018-12-12T07:14:36.353Z,1020.28
2018-12-12T07:15:36.369Z,1020.23
2018-12-12T07:16:36.349Z,1020.24
2018-12-12T07:17:36.372Z,1020.26
2018-12-12T07:18:36.358Z,1020.27
2018-12-12T07:19:36.347Z,1020.32
2018-12-12T07:20:36.349Z,1020.24
2018-12-12T07:21:36.338Z,1020.28
2018-12-12T07:22:36.356Z,1020.25
2018-12-12T07:23:36.349Z,1020.28
2018-12-12T07:24:36.330Z,1020.28
2018-12-12T07:25:36.337Z,1020.27
2018-12-12T07:26:36.348Z,1020.22
2018-12-12T07:27:36.323Z,1020.26
2018-12-12T07:28:36.322Z,1020.25
2018-12-12T07:29:36.317Z,1020.27
2018-12-12T07:30:36.333Z,1020.25
2018-12-12T07:31:36.328Z,1020.33
2018-12-12T07:32:36.319Z,1020.33
2018-12-12T07:33:36.319Z,1020.28
2018-12-12T07:34:36.302Z,1020.34
2018-12-12T07:35:36.307Z,1020.31
2018-12-12T07:36:36.305Z,1020.38
2018-12-12T07:37:36.309Z,1020.34
2018-12-12T07:38:36.307Z,1020.33
2018-12-12T07:39:36.308Z,1020.34
2018-12-12T07:40:36.298Z,1020.38
2018-12-12T07:41:36.286Z,1020.36
2018-12-12T07:42:36.294Z,1020.39
2018-12-12T07:43:36.288Z,1020.39
2018-12-12T07:44:36.296Z,1020.41
2018-12-12T07:45:36.288Z,1020.45
2018-12-12T07:46:36.284Z,1020.41
2018-12-12T07:47:36.279Z,1020.45
2018-12-12T07:48:36.275Z,1020.46
2018-12-12T07:49:36.297Z,1020.45
2018-12-12T07:50:36.275Z,1020.49
2018-12-12T07:51:36.278Z,1020.50
2018-12-12T07:52:36.261Z,1020.52
2018-12-12T07:53:36.265Z,1020.51
2018-12-12T07:54:36.278Z,1020.55
2018-12-12T07:55:36.261Z,1020.54
2018-12-12T07:56:36.281Z,1020.56
2018-12-12T07:57:36.259Z,1020.57
2018-12-12T07:58:36.249Z,1020.53
2018-12-12T07:59:36.241Z,1020.56
2018-12-12T08:00:36.241Z,1020.57
2018-12-12T08:01:36.246Z,1020.57
2018-12-12T08:02:36.245Z,1020.58
2018-12-12T08:03:36.261Z,1020.60
2018-12-12T08:04:36.256Z,1020.57
2018-12-12T08:05:36.338Z,1020.59
2018-12-12T08:06:36.235Z,1020.55
2018-12-12T08:07:36.317Z,1020.56
2018-12-12T08:08:36.225Z,1020.59
2018-12-12T08:09:36.218Z,1020.64
2018-12-12T08:10:36.228Z,1020.64
2018-12-12T08:11:36.221Z,1020.65
2018-12-12T08:12:36.217Z,1020.64
2018-12-12T08:13:36.223Z,1020.64
2018-12-12T08:14:36.215Z,1020.68
2018-12-12T08:15:36.218Z,1020.68
2018-12-12T08:16:36.215Z,1020.70
2018-12-12T08:17:36.229Z,1020.73
2018-12-12T08:18:36.197Z,1020.75
2018-12-12T08:19:36.201Z,1020.78
2018-12-12T08:20:36.187Z,1020.76
2018-12-12T08:21:36.318Z,1020.77
2018-12-12T08:22:36.208Z,1020.76
2018-12-12T08:23:36.216Z,1020.78
2018-12-12T08:24:36.199Z,1020.77
2018-12-12T08:25:36.188Z,1020.76
2018-12-12T08:26:36.184Z,1020.76
2018-12-12T08:27:36.188Z,1020.78
2018-12-12T08:28:36.185Z,1020.74
2018-12-12T08:29:36.180Z,1020.76
2018-12-12T08:30:36.183Z,1020.77
2018-12-12T08:31:36.169Z,1020.73
2018-12-12T08:32:36.169Z,1020.73
2018-12-12T08:33:36.158Z,1020.70
2018-12-12T08:34:36.154Z,1020.69
2018-12-12T08:35:36.181Z,1020.74
2018-12-12T08:36:36.151Z,1020.75
2018-12-12T08:37:36.150Z,1020.76
2018-12-12T08:38:36.782Z,1020.80
2018-12-12T08:39:36.157Z,1020.76
2018-12-12T08:40:36.142Z,1020.77
2018-12-12T08:41:36.165Z,1020.82
2018-12-12T08:42:36.139Z,1020.81
2018-12-12T08:43:36.142Z,1020.83
2018-12-12T08:44:36.138Z,1020.79
2018-12-12T08:45:36.145Z,1020.81
2018-12-12T08:46:36.145Z,1020.79
2018-12-12T08:47:36.156Z,1020.82
2018-12-12T08:48:36.131Z,1020.80
2018-12-12T08:49:36.130Z,1020.82
2018-12-12T08:50:36.127Z,1020.85
2018-12-12T08:51:36.131Z,1020.85
2018-12-12T08:52:36.136Z,1020.89
2018-12-12T08:53:36.127Z,1020.89
2018-12-12T08:54:36.122Z,1020.87
2018-12-12T08:55:36.119Z,1020.90
2018-12-12T08:56:36.129Z,1020.91
2018-12-12T08:57:36.136Z,1020.88
2018-12-12T08:58:36.137Z,1020.92
2018-12-12T08:59:36.112Z,1020.93
2018-12-12T09:00:36.099Z,1020.94
2018-12-12T09:01:36.122Z,1020.95
2018-12-12T09:02:36.186Z,1020.95
2018-12-12T09:03:36.110Z,1020.96
2018-12-12T09:04:36.122Z,1020.93
2018-12-12T09:05:36.118Z,1020.95
2018-12-12T09:06:36.096Z,1020.97
2018-12-12T09:07:36.101Z,1020.95
2018-12-12T09:08:36.076Z,1020.95
2018-12-12T09:09:36.078Z,1020.94
2018-12-12T09:10:36.075Z,1020.94
2018-12-12T09:11:36.083Z,1020.97
2018-12-12T09:12:36.097Z,1020.98
2018-12-12T09:13:36.081Z,1020.99
2018-12-12T09:14:36.080Z,1020.98
2018-12-12T09:15:36.078Z,1020.98
2018-12-12T09:16:36.071Z,1021.00
2018-12-12T09:17:36.070Z,1020.99
2018-12-12T09:18:36.059Z,1021.03
2018-12-12T09:19:36.065Z,1021.07
2018-12-12T09:20:36.070Z,1021.09
2018-12-12T09:21:36.066Z,1021.10
2018-12-12T09:22:36.057Z,1021.12
2018-12-12T09:23:36.056Z,1021.09
2018-12-12T09:24:36.059Z,1021.13
2018-12-12T09:25:36.049Z,1021.13
2018-12-12T09:26:36.047Z,1021.09
2018-12-12T09:27:36.043Z,1021.11
2018-12-12T09:28:36.053Z,1021.07
2018-12-12T09:29:36.046Z,1021.15
2018-12-12T09:30:36.043Z,1021.16
2018-12-12T09:31:36.039Z,1021.15
2018-12-12T09:32:36.028Z,1021.14
2018-12-12T09:33:36.041Z,1021.16
2018-12-12T09:34:36.025Z,1021.18
2018-12-12T09:35:36.121Z,1021.21
2018-12-12T09:36:36.357Z,1021.20
2018-12-12T09:37:36.351Z,1021.19
2018-12-12T09:38:36.187Z,1021.23
2018-12-12T09:39:36.023Z,1021.20
2018-12-12T09:40:36.022Z,1021.22
2018-12-12T09:41:36.015Z,1021.19
2018-12-12T09:42:36.030Z,1021.21
2018-12-12T09:43:36.019Z,1021.23
2018-12-12T09:44:36.026Z,1021.22
2018-12-12T09:45:36.025Z,1021.25
2018-12-12T09:46:36.026Z,1021.23
2018-12-12T09:47:36.009Z,1021.20
2018-12-12T09:48:35.998Z,1021.19
2018-12-12T09:49:36.023Z,1021.14
2018-12-12T09:50:36.011Z,1021.19
2018-12-12T09:51:36.013Z,1021.17
2018-12-12T09:52:36.015Z,1021.20
2018-12-12T09:53:35.999Z,1021.19
2018-12-12T09:54:36.039Z,1021.16
2018-12-12T09:55:36.005Z,1021.14
2018-12-12T09:56:35.983Z,1021.14
2018-12-12T09:57:36.005Z,1021.16
2018-12-12T09:58:35.992Z,1021.21
2018-12-12T09:59:35.980Z,1021.16
2018-12-12T10:00:35.994Z,1021.18
2018-12-12T10:01:35.982Z,1021.16
2018-12-12T10:02:35.987Z,1021.13
2018-12-12T10:03:35.983Z,1021.18
2018-12-12T10:04:35.977Z,1021.15
2018-12-12T10:05:35.985Z,1021.21
2018-12-12T10:06:35.973Z,1021.20
2018-12-12T10:07:35.964Z,1021.22
2018-12-12T10:08:35.970Z,1021.24
2018-12-12T10:09:35.988Z,1021.28
2018-12-12T10:10:35.960Z,1021.28
2018-12-12T10:11:35.995Z,1021.28
2018-12-12T10:12:35.958Z,1021.24
2018-12-12T10:13:35.974Z,1021.26
2018-12-12T10:14:36.018Z,1021.20
2018-12-12T10:15:35.969Z,1021.25
2018-12-12T10:16:35.956Z,1021.22
2018-12-12T10:17:35.952Z,1021.23
2018-12-12T10:18:35.958Z,1021.23
2018-12-12T10:19:35.946Z,1021.23
2018-12-12T10:20:35.938Z,1021.26
2018-12-12T10:21:35.971Z,1021.24
2018-12-12T10:22:35.947Z,1021.25
2018-12-12T10:23:35.967Z,1021.27
2018-12-12T10:24:35.935Z,1021.31
2018-12-12T10:25:35.954Z,1021.25
2018-12-12T10:26:35.945Z,1021.25
2018-12-12T10:27:35.959Z,1021.24
2018-12-12T10:28:35.962Z,1021.20
2018-12-12T10:29:35.931Z,1021.23
2018-12-12T10:30:35.940Z,1021.22
2018-12-12T10:31:35.937Z,1021.24
2018-12-12T10:32:35.937Z,1021.20
2018-12-12T10:33:37.839Z,1021.21
2018-12-12T10:34:35.929Z,1021.23
2018-12-12T10:35:35.930Z,1021.20
2018-12-12T10:36:35.913Z,1021.20
2018-12-12T10:37:35.917Z,1021.11
2018-12-12T10:38:35.969Z,1021.15
2018-12-12T10:39:35.924Z,1021.12
2018-12-12T10:40:35.944Z,1021.11
2018-12-12T10:41:35.938Z,1021.11
2018-12-12T10:42:35.957Z,1021.12
2018-12-12T10:43:35.928Z,1021.09
2018-12-12T10:44:35.936Z,1021.13
2018-12-12T10:45:35.931Z,1021.09
2018-12-12T10:46:35.909Z,1021.12
2018-12-12T10:47:35.899Z,1021.11
2018-12-12T10:48:35.909Z,1021.11
2018-12-12T10:49:35.897Z,1021.09
2018-12-12T10:50:36.114Z,1021.14
2018-12-12T10:51:35.909Z,1021.09
2018-12-12T10:52:35.897Z,1021.13
2018-12-12T10:53:35.891Z,1021.09
2018-12-12T10:54:35.886Z,1021.10
2018-12-12T10:55:35.883Z,1021.08
2018-12-12T10:56:35.929Z,1021.06
2018-12-12T10:57:35.901Z,1021.13
2018-12-12T10:58:35.906Z,1021.11
2018-12-12T10:59:35.880Z,1021.06
2018-12-12T11:00:35.883Z,1021.06
2018-12-12T11:01:37.582Z,1021.07
2018-12-12T11:02:35.897Z,1021.07
2018-12-12T11:03:35.884Z,1021.06
2018-12-12T11:04:35.886Z,1021.03
2018-12-12T11:05:35.886Z,1021.09
2018-12-12T11:06:35.877Z,1021.08
2018-12-12T11:07:35.877Z,1021.04
2018-12-12T11:08:35.881Z,1021.07
2018-12-12T11:09:35.876Z,1021.06
2018-12-12T11:10:35.873Z,1021.05
2018-12-12T11:11:35.867Z,1021.07
2018-12-12T11:12:35.865Z,1020.97
2018-12-12T11:13:35.870Z,1020.99
2018-12-12T11:14:35.859Z,1020.97
2018-12-12T11:15:35.874Z,1020.99
2018-12-12T11:16:35.866Z,1021.00
2018-12-12T11:17:35.870Z,1021.00
2018-12-12T11:18:35.865Z,1021.01
2018-12-12T11:19:35.857Z,1021.03
2018-12-12T11:20:35.850Z,1021.05
2018-12-12T11:21:35.850Z,1021.09
2018-12-12T11:22:35.861Z,1021.10
2018-12-12T11:23:35.862Z,1021.04
2018-12-12T11:24:35.853Z,1021.03
2018-12-12T11:25:35.859Z,1021.01
2018-12-12T11:26:35.855Z,1020.99
2018-12-12T11:27:35.846Z,1020.97
2018-12-12T11:28:35.845Z,1020.96
2018-12-12T11:29:35.849Z,1020.97
2018-12-12T11:30:35.853Z,1020.99
2018-12-12T11:31:35.860Z,1020.96
2018-12-12T11:32:35.856Z,1020.97
2018-12-12T11:33:35.870Z,1020.95
2018-12-12T11:34:35.843Z,1020.93
2018-12-12T11:35:35.846Z,1020.90
2018-12-12T11:36:35.845Z,1020.94
2018-12-12T11:37:35.888Z,1020.97
2018-12-12T11:38:35.837Z,1020.91
2018-12-12T11:39:35.828Z,1020.93
2018-12-12T11:40:35.854Z,1020.98
2018-12-12T11:41:35.831Z,1020.93
2018-12-12T11:42:35.982Z,1020.95
2018-12-12T11:43:35.823Z,1020.94
2018-12-12T11:44:35.832Z,1020.98
2018-12-12T11:45:35.831Z,1020.99
2018-12-12T11:46:35.833Z,1020.94
2018-12-12T11:47:35.817Z,1020.94
2018-12-12T11:48:35.833Z,1020.93
2018-12-12T11:49:35.820Z,1020.89
2018-12-12T11:50:35.825Z,1020.88
2018-12-12T11:51:35.825Z,1020.88
2018-12-12T11:52:35.812Z,1020.86
2018-12-12T11:53:35.809Z,1020.89
2018-12-12T11:54:35.821Z,1020.90
2018-12-12T11:55:35.819Z,1020.88
2018-12-12T11:56:35.814Z,1020.90
2018-12-12T11:57:35.816Z,1020.88
2018-12-12T11:58:35.805Z,1020.93
2018-12-12T11:59:35.808Z,1020.90
2018-12-12T12:00:35.799Z,1020.96
2018-12-12T12:01:35.809Z,1020.90
2018-12-12T12:02:35.845Z,1020.87
2018-12-12T12:03:35.811Z,1020.83
2018-12-12T12:04:35.804Z,1020.79
2018-12-12T12:05:35.795Z,1020.76